sensor_id;sensor_type;location;lat;lon;timestamp;noise_LAeq;noise_LA_min;noise_LA_max;noise_LA01;noise_LA95
43385;Laerm;28988;48.042;7.584;2024-03-17T00:02:21;31.95;29.85;35.29;;
43385;Laerm;28988;48.042;7.584;2024-03-17T00:04:47;31.92;29.93;35.04;;
43385;Laerm;28988;48.042;7.584;2024-03-17T00:09:37;31.89;29.83;35.29;;
43385;Laerm;28988;48.042;7.584;2024-03-17T00:12:03;31.90;29.83;35.35;;
43385;Laerm;28988;48.042;7.584;2024-03-17T00:14:29;31.88;30.08;34.73;;
43385;Laerm;28988;48.042;7.584;2024-03-17T00:16:54;31.90;29.93;34.90;;
43385;Laerm;28988;48.042;7.584;2024-03-17T00:19:19;31.90;29.84;34.99;;
43385;Laerm;28988;48.042;7.584;2024-03-17T00:24:12;31.81;29.49;35.25;;
43385;Laerm;28988;48.042;7.584;2024-03-17T00:26:38;31.80;29.69;35.70;;
43385;Laerm;28988;48.042;7.584;2024-03-17T00:29:03;31.78;29.75;34.91;;
43385;Laerm;28988;48.042;7.584;2024-03-17T00:31:29;31.78;29.75;34.91;;
43385;Laerm;28988;48.042;7.584;2024-03-17T00:33:54;31.76;29.53;34.92;;
43385;Laerm;28988;48.042;7.584;2024-03-17T00:36:19;31.76;29.72;34.45;;
43385;Laerm;28988;48.042;7.584;2024-03-17T00:38:45;31.68;29.52;34.66;;
43385;Laerm;28988;48.042;7.584;2024-03-17T00:41:10;31.68;29.70;34.51;;
43385;Laerm;28988;48.042;7.584;2024-03-17T00:43:36;31.66;29.83;35.02;;
43385;Laerm;28988;48.042;7.584;2024-03-17T00:46:02;31.73;29.82;34.86;;
43385;Laerm;28988;48.042;7.584;2024-03-17T00:48:27;31.72;29.72;34.80;;
43385;Laerm;28988;48.042;7.584;2024-03-17T00:50:56;31.69;29.76;34.71;;
43385;Laerm;28988;48.042;7.584;2024-03-17T00:53:21;31.70;29.71;35.10;;
43385;Laerm;28988;48.042;7.584;2024-03-17T00:55:53;31.71;29.78;34.82;;
43385;Laerm;28988;48.042;7.584;2024-03-17T00:58:19;31.71;29.41;34.81;;
43385;Laerm;28988;48.042;7.584;2024-03-17T01:00:45;31.74;29.30;34.77;;
43385;Laerm;28988;48.042;7.584;2024-03-17T01:03:12;31.73;29.83;34.80;;
43385;Laerm;28988;48.042;7.584;2024-03-17T01:05:38;31.75;29.83;34.79;;
43385;Laerm;28988;48.042;7.584;2024-03-17T01:08:07;31.73;29.59;34.66;;
43385;Laerm;28988;48.042;7.584;2024-03-17T01:10:32;31.70;29.72;34.61;;
43385;Laerm;28988;48.042;7.584;2024-03-17T01:12:57;31.75;29.84;35.00;;
43385;Laerm;28988;48.042;7.584;2024-03-17T01:15:22;31.74;29.52;34.56;;
43385;Laerm;28988;48.042;7.584;2024-03-17T01:17:48;31.75;29.61;34.63;;
43385;Laerm;28988;48.042;7.584;2024-03-17T01:20:13;31.75;29.82;34.80;;
43385;Laerm;28988;48.042;7.584;2024-03-17T01:22:38;31.72;29.62;34.82;;
43385;Laerm;28988;48.042;7.584;2024-03-17T01:25:03;31.68;29.73;34.77;;
43385;Laerm;28988;48.042;7.584;2024-03-17T01:27:28;31.71;29.68;34.61;;
43385;Laerm;28988;48.042;7.584;2024-03-17T01:29:54;31.68;29.63;34.77;;
43385;Laerm;28988;48.042;7.584;2024-03-17T01:32:19;31.69;29.50;34.60;;
43385;Laerm;28988;48.042;7.584;2024-03-17T01:34:44;31.72;29.63;34.47;;
43385;Laerm;28988;48.042;7.584;2024-03-17T01:37:10;31.75;29.86;35.03;;
43385;Laerm;28988;48.042;7.584;2024-03-17T01:39:35;31.77;29.97;34.48;;
43385;Laerm;28988;48.042;7.584;2024-03-17T01:42:00;31.78;29.89;34.83;;
43385;Laerm;28988;48.042;7.584;2024-03-17T01:44:26;31.77;29.82;34.91;;
43385;Laerm;28988;48.042;7.584;2024-03-17T01:46:52;31.70;29.73;35.02;;
43385;Laerm;28988;48.042;7.584;2024-03-17T01:49:18;31.69;29.76;34.76;;
43385;Laerm;28988;48.042;7.584;2024-03-17T01:54:09;31.65;29.66;34.84;;
43385;Laerm;28988;48.042;7.584;2024-03-17T01:56:34;31.64;29.54;35.41;;
43385;Laerm;28988;48.042;7.584;2024-03-17T01:58:59;31.65;29.53;34.46;;
43385;Laerm;28988;48.042;7.584;2024-03-17T02:01:26;31.61;29.48;35.03;;
43385;Laerm;28988;48.042;7.584;2024-03-17T02:06:16;31.53;29.51;34.39;;
43385;Laerm;28988;48.042;7.584;2024-03-17T02:13:38;31.53;29.62;34.49;;
43385;Laerm;28988;48.042;7.584;2024-03-17T02:16:03;31.53;29.72;34.46;;
43385;Laerm;28988;48.042;7.584;2024-03-17T02:18:29;31.53;29.71;34.81;;
43385;Laerm;28988;48.042;7.584;2024-03-17T02:20:54;31.52;29.52;34.39;;
43385;Laerm;28988;48.042;7.584;2024-03-17T02:23:26;31.51;29.61;34.58;;
43385;Laerm;28988;48.042;7.584;2024-03-17T02:25:52;31.52;29.66;35.17;;
43385;Laerm;28988;48.042;7.584;2024-03-17T02:28:17;31.53;29.53;34.27;;
43385;Laerm;28988;48.042;7.584;2024-03-17T02:30:42;31.57;29.58;34.42;;
43385;Laerm;28988;48.042;7.584;2024-03-17T02:35:33;31.52;29.53;34.25;;
43385;Laerm;28988;48.042;7.584;2024-03-17T02:37:58;31.52;29.53;34.25;;
43385;Laerm;28988;48.042;7.584;2024-03-17T02:40:23;31.41;29.45;34.44;;
43385;Laerm;28988;48.042;7.584;2024-03-17T02:42:48;31.43;29.46;34.99;;
43385;Laerm;28988;48.042;7.584;2024-03-17T02:45:13;31.41;29.55;34.48;;
43385;Laerm;28988;48.042;7.584;2024-03-17T02:47:39;31.39;29.51;34.61;;
43385;Laerm;28988;48.042;7.584;2024-03-17T02:50:04;31.40;29.50;34.69;;
43385;Laerm;28988;48.042;7.584;2024-03-17T02:52:30;31.38;29.46;34.40;;
43385;Laerm;28988;48.042;7.584;2024-03-17T02:57:20;31.39;29.27;34.47;;
43385;Laerm;28988;48.042;7.584;2024-03-17T02:59:46;31.36;29.50;34.31;;
43385;Laerm;28988;48.042;7.584;2024-03-17T03:02:11;31.30;29.29;34.56;;
43385;Laerm;28988;48.042;7.584;2024-03-17T03:04:37;31.28;29.43;34.48;;
43385;Laerm;28988;48.042;7.584;2024-03-17T03:07:02;31.25;29.29;34.05;;
43385;Laerm;28988;48.042;7.584;2024-03-17T03:09:28;31.26;29.41;34.67;;
43385;Laerm;28988;48.042;7.584;2024-03-17T03:11:57;31.24;29.26;34.03;;
43385;Laerm;28988;48.042;7.584;2024-03-17T03:14:22;31.25;29.33;34.09;;
43385;Laerm;28988;48.042;7.584;2024-03-17T03:16:47;31.25;29.36;34.53;;
43385;Laerm;28988;48.042;7.584;2024-03-17T03:19:14;31.22;29.42;34.15;;
43385;Laerm;28988;48.042;7.584;2024-03-17T03:21:39;31.19;29.35;33.90;;
43385;Laerm;28988;48.042;7.584;2024-03-17T03:24:04;31.16;29.38;33.86;;
43385;Laerm;28988;48.042;7.584;2024-03-17T03:26:29;31.17;29.17;34.28;;
43385;Laerm;28988;48.042;7.584;2024-03-17T03:28:55;31.12;29.08;34.03;;
43385;Laerm;28988;48.042;7.584;2024-03-17T03:31:20;31.12;29.39;34.01;;
43385;Laerm;28988;48.042;7.584;2024-03-17T03:33:46;31.14;29.13;34.08;;
43385;Laerm;28988;48.042;7.584;2024-03-17T03:36:12;31.24;29.27;34.46;;
43385;Laerm;28988;48.042;7.584;2024-03-17T03:38:38;31.27;29.52;34.13;;
43385;Laerm;28988;48.042;7.584;2024-03-17T03:41:10;31.21;29.33;34.19;;
43385;Laerm;28988;48.042;7.584;2024-03-17T03:43:35;31.17;29.35;34.09;;
43385;Laerm;28988;48.042;7.584;2024-03-17T03:46:01;31.12;29.20;33.95;;
43385;Laerm;28988;48.042;7.584;2024-03-17T03:48:27;31.11;29.31;33.93;;
43385;Laerm;28988;48.042;7.584;2024-03-17T03:50:52;31.15;29.44;34.10;;
43385;Laerm;28988;48.042;7.584;2024-03-17T03:53:17;31.15;29.22;33.96;;
43385;Laerm;28988;48.042;7.584;2024-03-17T03:55:43;31.10;29.30;34.32;;
43385;Laerm;28988;48.042;7.584;2024-03-17T03:58:08;31.08;29.22;34.00;;
43385;Laerm;28988;48.042;7.584;2024-03-17T04:00:33;31.03;29.11;33.80;;
43385;Laerm;28988;48.042;7.584;2024-03-17T04:02:59;31.04;29.23;34.05;;
43385;Laerm;28988;48.042;7.584;2024-03-17T04:05:26;31.02;29.11;34.34;;
43385;Laerm;28988;48.042;7.584;2024-03-17T04:07:52;30.95;29.19;33.84;;
43385;Laerm;28988;48.042;7.584;2024-03-17T04:10:18;30.94;29.15;34.16;;
43385;Laerm;28988;48.042;7.584;2024-03-17T04:12:45;30.90;29.07;33.80;;
43385;Laerm;28988;48.042;7.584;2024-03-17T04:15:10;30.97;29.16;33.75;;
43385;Laerm;28988;48.042;7.584;2024-03-17T04:17:36;31.01;29.29;34.05;;
43385;Laerm;28988;48.042;7.584;2024-03-17T04:20:02;30.99;28.84;33.96;;
43385;Laerm;28988;48.042;7.584;2024-03-17T04:22:28;30.97;29.15;33.92;;
43385;Laerm;28988;48.042;7.584;2024-03-17T04:24:53;30.97;29.07;33.88;;
43385;Laerm;28988;48.042;7.584;2024-03-17T04:27:22;30.98;29.15;33.83;;
43385;Laerm;28988;48.042;7.584;2024-03-17T04:29:48;30.96;29.06;33.92;;
43385;Laerm;28988;48.042;7.584;2024-03-17T04:32:13;30.97;28.95;34.25;;
43385;Laerm;28988;48.042;7.584;2024-03-17T04:34:38;30.97;28.95;34.25;;
43385;Laerm;28988;48.042;7.584;2024-03-17T04:37:03;30.96;29.11;34.20;;
43385;Laerm;28988;48.042;7.584;2024-03-17T04:39:29;30.95;29.01;34.09;;
43385;Laerm;28988;48.042;7.584;2024-03-17T04:41:54;30.93;29.25;33.87;;
43385;Laerm;28988;48.042;7.584;2024-03-17T04:44:19;31.00;29.16;34.20;;
43385;Laerm;28988;48.042;7.584;2024-03-17T04:46:44;30.99;29.04;34.36;;
43385;Laerm;28988;48.042;7.584;2024-03-17T04:49:09;30.97;28.69;33.67;;
43385;Laerm;28988;48.042;7.584;2024-03-17T04:51:35;30.96;29.15;34.16;;
43385;Laerm;28988;48.042;7.584;2024-03-17T04:54:00;30.93;29.18;34.01;;
43385;Laerm;28988;48.042;7.584;2024-03-17T04:56:25;30.91;29.13;34.29;;
43385;Laerm;28988;48.042;7.584;2024-03-17T04:58:51;30.91;29.08;34.01;;
43385;Laerm;28988;48.042;7.584;2024-03-17T05:01:16;30.89;29.18;33.37;;
43385;Laerm;28988;48.042;7.584;2024-03-17T05:03:42;30.87;29.14;33.73;;
43385;Laerm;28988;48.042;7.584;2024-03-17T05:06:07;30.88;28.66;34.02;;
43385;Laerm;28988;48.042;7.584;2024-03-17T05:08:32;30.89;29.09;34.14;;
43385;Laerm;28988;48.042;7.584;2024-03-17T05:10:58;30.85;28.89;33.61;;
43385;Laerm;28988;48.042;7.584;2024-03-17T05:13:24;30.85;28.86;33.84;;
43385;Laerm;28988;48.042;7.584;2024-03-17T05:15:50;30.88;29.08;33.84;;
43385;Laerm;28988;48.042;7.584;2024-03-17T05:18:15;30.89;28.95;34.11;;
43385;Laerm;28988;48.042;7.584;2024-03-17T05:20:40;30.94;29.23;34.00;;
43385;Laerm;28988;48.042;7.584;2024-03-17T05:23:05;30.95;29.21;33.72;;
43385;Laerm;28988;48.042;7.584;2024-03-17T05:25:30;30.97;29.07;34.18;;
43385;Laerm;28988;48.042;7.584;2024-03-17T05:28:01;30.96;29.10;33.71;;
43385;Laerm;28988;48.042;7.584;2024-03-17T05:30:26;30.98;29.17;34.07;;
43385;Laerm;28988;48.042;7.584;2024-03-17T05:32:51;30.99;29.18;33.95;;
43385;Laerm;28988;48.042;7.584;2024-03-17T05:35:17;31.03;29.33;34.03;;
43385;Laerm;28988;48.042;7.584;2024-03-17T05:37:42;30.99;29.10;34.07;;
43385;Laerm;28988;48.042;7.584;2024-03-17T05:40:09;30.97;29.02;34.38;;
43385;Laerm;28988;48.042;7.584;2024-03-17T05:45:02;30.96;29.08;33.91;;
43385;Laerm;28988;48.042;7.584;2024-03-17T05:47:27;30.96;29.01;33.99;;
43385;Laerm;28988;48.042;7.584;2024-03-17T05:49:52;30.95;29.06;34.20;;
43385;Laerm;28988;48.042;7.584;2024-03-17T05:52:17;30.95;29.05;33.97;;
43385;Laerm;28988;48.042;7.584;2024-03-17T05:54:43;30.97;29.08;34.13;;
43385;Laerm;28988;48.042;7.584;2024-03-17T05:57:08;30.97;29.15;33.91;;
43385;Laerm;28988;48.042;7.584;2024-03-17T05:59:34;30.99;29.31;34.17;;
43385;Laerm;28988;48.042;7.584;2024-03-17T06:01:59;30.95;29.01;34.23;;
43385;Laerm;28988;48.042;7.584;2024-03-17T06:04:25;30.96;29.22;33.74;;
43385;Laerm;28988;48.042;7.584;2024-03-17T06:06:50;30.94;28.97;33.89;;
43385;Laerm;28988;48.042;7.584;2024-03-17T06:09:15;30.94;29.19;33.87;;
43385;Laerm;28988;48.042;7.584;2024-03-17T06:11:43;30.94;29.10;34.09;;
43385;Laerm;28988;48.042;7.584;2024-03-17T06:14:08;30.96;29.04;34.10;;
43385;Laerm;28988;48.042;7.584;2024-03-17T06:16:36;31.02;29.18;34.44;;
43385;Laerm;28988;48.042;7.584;2024-03-17T06:19:01;31.04;29.36;34.61;;
43385;Laerm;28988;48.042;7.584;2024-03-17T06:21:28;31.04;29.18;34.78;;
43385;Laerm;28988;48.042;7.584;2024-03-17T06:23:53;31.05;29.16;34.08;;
43385;Laerm;28988;48.042;7.584;2024-03-17T06:26:19;31.08;29.30;34.28;;
43385;Laerm;28988;48.042;7.584;2024-03-17T06:28:45;31.08;29.21;33.89;;
43385;Laerm;28988;48.042;7.584;2024-03-17T06:31:10;31.09;29.11;34.45;;
43385;Laerm;28988;48.042;7.584;2024-03-17T06:33:36;31.10;29.28;34.17;;
43385;Laerm;28988;48.042;7.584;2024-03-17T06:38:29;31.16;29.17;34.15;;
43385;Laerm;28988;48.042;7.584;2024-03-17T06:40:54;31.18;29.18;33.86;;
43385;Laerm;28988;48.042;7.584;2024-03-17T06:45:57;31.19;29.08;34.35;;
43385;Laerm;28988;48.042;7.584;2024-03-17T06:48:23;31.23;29.36;34.57;;
43385;Laerm;28988;48.042;7.584;2024-03-17T06:50:48;31.27;29.42;33.92;;
43385;Laerm;28988;48.042;7.584;2024-03-17T06:53:14;31.30;29.48;34.13;;
43385;Laerm;28988;48.042;7.584;2024-03-17T06:55:39;31.26;29.42;34.14;;
43385;Laerm;28988;48.042;7.584;2024-03-17T06:58:04;31.30;29.39;34.31;;
43385;Laerm;28988;48.042;7.584;2024-03-17T07:00:29;31.38;29.54;34.27;;
43385;Laerm;28988;48.042;7.584;2024-03-17T07:05:20;31.48;29.57;34.23;;
43385;Laerm;28988;48.042;7.584;2024-03-17T07:07:45;31.52;29.62;34.67;;
43385;Laerm;28988;48.042;7.584;2024-03-17T07:10:11;31.53;29.63;34.31;;
43385;Laerm;28988;48.042;7.584;2024-03-17T07:12:37;31.54;29.47;34.55;;
43385;Laerm;28988;48.042;7.584;2024-03-17T07:15:02;31.57;29.56;34.82;;
43385;Laerm;28988;48.042;7.584;2024-03-17T07:17:27;31.57;29.73;34.91;;
43385;Laerm;28988;48.042;7.584;2024-03-17T07:19:52;31.52;29.68;34.26;;
43385;Laerm;28988;48.042;7.584;2024-03-17T07:22:18;31.54;29.70;34.93;;
43385;Laerm;28988;48.042;7.584;2024-03-17T07:24:43;31.60;29.56;34.68;;
43385;Laerm;28988;48.042;7.584;2024-03-17T07:27:09;31.60;29.63;34.51;;
43385;Laerm;28988;48.042;7.584;2024-03-17T07:29:38;31.60;29.66;34.87;;
43385;Laerm;28988;48.042;7.584;2024-03-17T07:32:03;31.60;29.29;34.43;;
43385;Laerm;28988;48.042;7.584;2024-03-17T07:36:54;31.63;29.49;34.57;;
43385;Laerm;28988;48.042;7.584;2024-03-17T07:39:19;31.68;29.72;35.27;;
43385;Laerm;28988;48.042;7.584;2024-03-17T07:41:44;31.76;29.75;34.84;;
43385;Laerm;28988;48.042;7.584;2024-03-17T07:44:09;31.86;29.78;35.19;;
43385;Laerm;28988;48.042;7.584;2024-03-17T07:46:34;31.87;29.79;34.62;;
43385;Laerm;28988;48.042;7.584;2024-03-17T07:48:59;31.87;29.54;34.87;;
43385;Laerm;28988;48.042;7.584;2024-03-17T07:51:25;31.88;29.91;34.67;;
43385;Laerm;28988;48.042;7.584;2024-03-17T07:56:17;31.91;29.99;34.64;;
43385;Laerm;28988;48.042;7.584;2024-03-17T07:58:43;31.91;30.04;35.06;;
43385;Laerm;28988;48.042;7.584;2024-03-17T08:01:11;31.84;29.76;34.89;;
43385;Laerm;28988;48.042;7.584;2024-03-17T08:03:37;31.82;29.89;34.90;;
43385;Laerm;28988;48.042;7.584;2024-03-17T08:06:03;31.83;29.89;34.90;;
43385;Laerm;28988;48.042;7.584;2024-03-17T08:08:29;31.83;29.81;35.09;;
43385;Laerm;28988;48.042;7.584;2024-03-17T08:10:55;31.87;29.74;34.79;;
43385;Laerm;28988;48.042;7.584;2024-03-17T08:13:21;31.84;29.92;34.93;;
43385;Laerm;28988;48.042;7.584;2024-03-17T08:15:46;31.88;29.65;34.65;;
43385;Laerm;28988;48.042;7.584;2024-03-17T08:18:12;31.92;29.89;35.00;;
43385;Laerm;28988;48.042;7.584;2024-03-17T08:20:38;31.93;29.70;35.14;;
43385;Laerm;28988;48.042;7.584;2024-03-17T08:25:30;31.94;30.01;34.83;;
43385;Laerm;28988;48.042;7.584;2024-03-17T08:27:55;32.08;30.08;35.12;;
43385;Laerm;28988;48.042;7.584;2024-03-17T08:30:21;32.08;30.21;34.95;;
43385;Laerm;28988;48.042;7.584;2024-03-17T08:32:46;31.97;30.03;35.00;;
43385;Laerm;28988;48.042;7.584;2024-03-17T08:35:11;31.98;30.02;34.84;;
43385;Laerm;28988;48.042;7.584;2024-03-17T08:37:37;32.02;29.98;34.79;;
43385;Laerm;28988;48.042;7.584;2024-03-17T08:40:02;31.94;29.96;36.11;;
43385;Laerm;28988;48.042;7.584;2024-03-17T08:42:27;31.95;30.02;35.43;;
43385;Laerm;28988;48.042;7.584;2024-03-17T08:44:53;31.93;29.93;34.92;;
43385;Laerm;28988;48.042;7.584;2024-03-17T08:47:19;32.01;29.64;34.93;;
43385;Laerm;28988;48.042;7.584;2024-03-17T08:49:44;32.02;30.14;34.79;;
43385;Laerm;28988;48.042;7.584;2024-03-17T08:52:09;32.03;29.92;34.98;;
43385;Laerm;28988;48.042;7.584;2024-03-17T08:54:35;32.01;29.83;35.20;;
43385;Laerm;28988;48.042;7.584;2024-03-17T08:57:00;32.01;30.05;34.94;;
43385;Laerm;28988;48.042;7.584;2024-03-17T08:59:25;32.01;29.97;35.02;;
43385;Laerm;28988;48.042;7.584;2024-03-17T09:01:50;32.07;29.95;34.83;;
43385;Laerm;28988;48.042;7.584;2024-03-17T09:04:15;32.02;30.26;35.03;;
43385;Laerm;28988;48.042;7.584;2024-03-17T09:06:41;32.01;30.00;34.73;;
43385;Laerm;28988;48.042;7.584;2024-03-17T09:09:07;31.98;30.05;34.75;;
43385;Laerm;28988;48.042;7.584;2024-03-17T09:11:32;31.95;29.97;34.58;;
43385;Laerm;28988;48.042;7.584;2024-03-17T09:13:57;31.92;30.06;34.64;;
43385;Laerm;28988;48.042;7.584;2024-03-17T09:16:23;31.88;30.05;34.71;;
43385;Laerm;28988;48.042;7.584;2024-03-17T09:18:50;31.96;30.06;34.91;;
43385;Laerm;28988;48.042;7.584;2024-03-17T09:21:15;32.08;29.97;35.25;;
43385;Laerm;28988;48.042;7.584;2024-03-17T09:23:43;32.08;30.09;34.98;;
43385;Laerm;28988;48.042;7.584;2024-03-17T09:26:09;32.03;29.92;35.74;;
43385;Laerm;28988;48.042;7.584;2024-03-17T09:28:34;32.03;29.84;35.16;;
43385;Laerm;28988;48.042;7.584;2024-03-17T09:31:00;32.01;30.00;35.21;;
43385;Laerm;28988;48.042;7.584;2024-03-17T09:33:26;32.02;30.00;35.01;;
43385;Laerm;28988;48.042;7.584;2024-03-17T09:38:20;32.17;30.23;35.02;;
43385;Laerm;28988;48.042;7.584;2024-03-17T09:40:46;32.21;30.29;35.22;;
43385;Laerm;28988;48.042;7.584;2024-03-17T09:43:11;32.15;30.20;34.82;;
43385;Laerm;28988;48.042;7.584;2024-03-17T09:45:37;32.07;30.02;34.95;;
43385;Laerm;28988;48.042;7.584;2024-03-17T09:48:02;32.07;29.99;35.10;;
43385;Laerm;28988;48.042;7.584;2024-03-17T09:50:27;32.06;29.99;34.85;;
43385;Laerm;28988;48.042;7.584;2024-03-17T09:52:52;32.15;30.09;34.91;;
43385;Laerm;28988;48.042;7.584;2024-03-17T09:55:18;32.24;30.22;35.02;;
43385;Laerm;28988;48.042;7.584;2024-03-17T09:57:44;32.19;30.26;35.39;;
43385;Laerm;28988;48.042;7.584;2024-03-17T10:00:10;32.10;29.99;35.35;;
43385;Laerm;28988;48.042;7.584;2024-03-17T10:02:42;32.06;30.18;35.16;;
43385;Laerm;28988;48.042;7.584;2024-03-17T10:05:17;32.08;30.13;35.05;;
43385;Laerm;28988;48.042;7.584;2024-03-17T10:07:43;32.14;30.11;35.16;;
43385;Laerm;28988;48.042;7.584;2024-03-17T10:10:11;32.17;30.16;34.77;;
43385;Laerm;28988;48.042;7.584;2024-03-17T10:12:41;32.12;30.09;35.17;;
43385;Laerm;28988;48.042;7.584;2024-03-17T10:15:07;32.16;30.19;35.64;;
43385;Laerm;28988;48.042;7.584;2024-03-17T10:17:35;32.14;30.29;35.37;;
43385;Laerm;28988;48.042;7.584;2024-03-17T10:22:27;32.04;30.16;34.89;;
43385;Laerm;28988;48.042;7.584;2024-03-17T10:24:58;32.14;30.12;35.06;;
43385;Laerm;28988;48.042;7.584;2024-03-17T10:27:24;32.11;29.99;34.99;;
43385;Laerm;28988;48.042;7.584;2024-03-17T10:29:49;32.13;29.97;35.14;;
43385;Laerm;28988;48.042;7.584;2024-03-17T10:32:15;32.13;30.25;35.56;;
43385;Laerm;28988;48.042;7.584;2024-03-17T10:34:44;32.17;30.11;35.43;;
43385;Laerm;28988;48.042;7.584;2024-03-17T10:39:41;32.29;30.16;35.21;;
43385;Laerm;28988;48.042;7.584;2024-03-17T10:42:07;32.41;30.34;35.23;;
43385;Laerm;28988;48.042;7.584;2024-03-17T10:44:34;32.53;30.55;35.49;;
43385;Laerm;28988;48.042;7.584;2024-03-17T10:47:00;32.55;30.59;35.33;;
43385;Laerm;28988;48.042;7.584;2024-03-17T10:49:30;32.50;30.32;35.30;;
43385;Laerm;28988;48.042;7.584;2024-03-17T10:52:02;32.45;30.45;35.40;;
43385;Laerm;28988;48.042;7.584;2024-03-17T10:54:27;32.58;30.44;36.47;;
43385;Laerm;28988;48.042;7.584;2024-03-17T10:57:44;32.56;30.63;35.79;;
43385;Laerm;28988;48.042;7.584;2024-03-17T10:59:42;32.59;30.56;36.45;;
43385;Laerm;28988;48.042;7.584;2024-03-17T11:02:21;32.66;30.67;35.31;;
43385;Laerm;28988;48.042;7.584;2024-03-17T11:04:52;32.62;30.57;35.61;;
43385;Laerm;28988;48.042;7.584;2024-03-17T11:07:18;32.55;30.52;35.99;;
43385;Laerm;28988;48.042;7.584;2024-03-17T11:09:44;32.45;30.58;35.54;;
43385;Laerm;28988;48.042;7.584;2024-03-17T11:17:21;32.57;30.57;35.56;;
43385;Laerm;28988;48.042;7.584;2024-03-17T11:20:07;32.65;30.50;35.41;;
43385;Laerm;28988;48.042;7.584;2024-03-17T11:22:42;32.69;30.49;35.72;;
43385;Laerm;28988;48.042;7.584;2024-03-17T11:25:36;32.76;30.70;36.10;;
43385;Laerm;28988;48.042;7.584;2024-03-17T11:35:49;32.69;30.69;35.57;;
43385;Laerm;28988;48.042;7.584;2024-03-17T11:43:42;32.67;30.77;35.90;;
43385;Laerm;28988;48.042;7.584;2024-03-17T11:48:35;32.59;30.73;35.42;;
43385;Laerm;28988;48.042;7.584;2024-03-17T11:51:00;32.55;30.58;35.63;;
43385;Laerm;28988;48.042;7.584;2024-03-17T11:53:25;32.51;30.58;35.41;;
43385;Laerm;28988;48.042;7.584;2024-03-17T11:55:53;32.61;30.45;35.66;;
43385;Laerm;28988;48.042;7.584;2024-03-17T11:58:18;32.56;30.56;35.24;;
43385;Laerm;28988;48.042;7.584;2024-03-17T12:03:10;32.56;30.47;35.43;;
43385;Laerm;28988;48.042;7.584;2024-03-17T12:05:36;32.53;30.45;35.36;;
43385;Laerm;28988;48.042;7.584;2024-03-17T12:08:04;32.50;30.49;35.37;;
43385;Laerm;28988;48.042;7.584;2024-03-17T12:10:29;32.50;30.54;35.26;;
43385;Laerm;28988;48.042;7.584;2024-03-17T12:12:55;32.51;30.53;35.61;;
43385;Laerm;28988;48.042;7.584;2024-03-17T12:15:20;32.59;30.54;35.79;;
43385;Laerm;28988;48.042;7.584;2024-03-17T12:17:46;32.60;30.58;35.92;;
43385;Laerm;28988;48.042;7.584;2024-03-17T12:20:18;32.51;30.44;35.49;;
43385;Laerm;28988;48.042;7.584;2024-03-17T12:22:44;32.41;30.49;35.66;;
43385;Laerm;28988;48.042;7.584;2024-03-17T12:25:15;32.38;30.21;35.85;;
43385;Laerm;28988;48.042;7.584;2024-03-17T12:30:06;32.36;30.20;35.55;;
43385;Laerm;28988;48.042;7.584;2024-03-17T12:32:34;32.38;30.34;35.49;;
43385;Laerm;28988;48.042;7.584;2024-03-17T12:34:59;32.38;30.10;35.49;;
43385;Laerm;28988;48.042;7.584;2024-03-17T12:37:25;32.32;30.21;35.46;;
43385;Laerm;28988;48.042;7.584;2024-03-17T12:39:56;32.27;30.10;34.93;;
43385;Laerm;28988;48.042;7.584;2024-03-17T12:42:24;32.28;30.36;35.42;;
43385;Laerm;28988;48.042;7.584;2024-03-17T12:44:54;32.38;30.34;35.64;;
43385;Laerm;28988;48.042;7.584;2024-03-17T12:47:20;32.42;30.30;35.47;;
43385;Laerm;28988;48.042;7.584;2024-03-17T12:49:53;32.38;30.40;35.10;;
43385;Laerm;28988;48.042;7.584;2024-03-17T12:54:44;32.37;30.01;35.22;;
43385;Laerm;28988;48.042;7.584;2024-03-17T12:57:17;32.46;30.41;35.40;;
43385;Laerm;28988;48.042;7.584;2024-03-17T13:00:16;32.49;30.49;35.47;;
43385;Laerm;28988;48.042;7.584;2024-03-17T13:03:03;32.48;30.53;35.26;;
43385;Laerm;28988;48.042;7.584;2024-03-17T13:05:29;32.46;30.49;35.35;;
43385;Laerm;28988;48.042;7.584;2024-03-17T13:07:55;32.50;30.11;35.53;;
43385;Laerm;28988;48.042;7.584;2024-03-17T13:10:22;32.52;30.55;35.22;;
43385;Laerm;28988;48.042;7.584;2024-03-17T13:15:16;32.57;29.93;36.09;;
43385;Laerm;28988;48.042;7.584;2024-03-17T13:17:42;32.53;30.63;35.48;;
43385;Laerm;28988;48.042;7.584;2024-03-17T13:20:14;32.54;30.40;36.07;;
43385;Laerm;28988;48.042;7.584;2024-03-17T13:22:40;32.51;30.64;35.30;;
43385;Laerm;28988;48.042;7.584;2024-03-17T13:25:16;32.59;29.99;35.46;;
43385;Laerm;28988;48.042;7.584;2024-03-17T13:27:42;32.71;30.69;35.61;;
43385;Laerm;28988;48.042;7.584;2024-03-17T13:30:08;32.69;30.63;35.66;;
43385;Laerm;28988;48.042;7.584;2024-03-17T13:32:34;32.51;30.44;35.10;;
43385;Laerm;28988;48.042;7.584;2024-03-17T13:34:59;32.48;30.34;35.31;;
43385;Laerm;28988;48.042;7.584;2024-03-17T13:37:24;32.45;30.32;36.01;;
43385;Laerm;28988;48.042;7.584;2024-03-17T13:39:50;32.46;30.20;35.29;;
43385;Laerm;28988;48.042;7.584;2024-03-17T13:42:15;32.47;30.47;35.39;;
43385;Laerm;28988;48.042;7.584;2024-03-17T13:44:41;32.59;30.40;35.56;;
43385;Laerm;28988;48.042;7.584;2024-03-17T13:47:06;32.67;30.42;36.00;;
43385;Laerm;28988;48.042;7.584;2024-03-17T13:49:32;32.58;30.63;35.67;;
43385;Laerm;28988;48.042;7.584;2024-03-17T13:51:58;32.51;30.28;35.79;;
43385;Laerm;28988;48.042;7.584;2024-03-17T13:54:24;32.43;30.50;35.34;;
43385;Laerm;28988;48.042;7.584;2024-03-17T13:56:49;32.40;30.49;35.26;;
43385;Laerm;28988;48.042;7.584;2024-03-17T13:59:17;32.51;30.60;35.31;;
43385;Laerm;28988;48.042;7.584;2024-03-17T14:01:43;32.62;30.64;35.58;;
43385;Laerm;28988;48.042;7.584;2024-03-17T14:04:15;32.61;30.55;35.41;;
43385;Laerm;28988;48.042;7.584;2024-03-17T14:06:41;32.51;30.51;35.22;;
43385;Laerm;28988;48.042;7.584;2024-03-17T14:09:06;32.45;30.28;35.50;;
43385;Laerm;28988;48.042;7.584;2024-03-17T14:11:34;32.54;30.35;35.42;;
43385;Laerm;28988;48.042;7.584;2024-03-17T14:13:59;32.52;30.62;35.39;;
43385;Laerm;28988;48.042;7.584;2024-03-17T14:16:24;32.44;30.62;35.47;;
43385;Laerm;28988;48.042;7.584;2024-03-17T14:18:49;32.49;30.47;35.73;;
43385;Laerm;28988;48.042;7.584;2024-03-17T14:21:14;32.41;30.34;35.53;;
43385;Laerm;28988;48.042;7.584;2024-03-17T14:23:40;32.45;30.41;35.34;;
43385;Laerm;28988;48.042;7.584;2024-03-17T14:26:05;32.46;30.54;35.36;;
43385;Laerm;28988;48.042;7.584;2024-03-17T14:28:31;32.50;30.42;36.00;;
43385;Laerm;28988;48.042;7.584;2024-03-17T14:30:56;32.53;30.51;35.75;;
43385;Laerm;28988;48.042;7.584;2024-03-17T14:33:21;32.59;30.58;35.37;;
43385;Laerm;28988;48.042;7.584;2024-03-17T14:35:55;32.64;30.74;35.84;;
43385;Laerm;28988;48.042;7.584;2024-03-17T14:38:20;32.56;30.58;35.53;;
43385;Laerm;28988;48.042;7.584;2024-03-17T14:40:45;32.54;30.54;35.88;;
43385;Laerm;28988;48.042;7.584;2024-03-17T14:45:36;32.52;30.53;35.61;;
43385;Laerm;28988;48.042;7.584;2024-03-17T14:48:01;32.55;30.20;35.57;;
43385;Laerm;28988;48.042;7.584;2024-03-17T14:50:27;32.56;30.60;35.38;;
43385;Laerm;28988;48.042;7.584;2024-03-17T14:52:53;32.57;30.68;35.50;;
43385;Laerm;28988;48.042;7.584;2024-03-17T14:55:18;32.58;30.68;35.34;;
43385;Laerm;28988;48.042;7.584;2024-03-17T14:57:44;32.55;30.63;35.77;;